sensor_id;sensor_type;location;lat;lon;timestamp;P1;durP1;ratioP1;P2;durP2;ratioP2
26946;SDS011;14501;52.282;10.560;2023-07-28T00:01:14;14.40;;;10.90;;
26946;SDS011;14501;52.282;10.560;2023-07-28T00:03:40;15.18;;;10.88;;
26946;SDS011;14501;52.282;10.560;2023-07-28T00:06:05;16.13;;;10.15;;
26946;SDS011;14501;52.282;10.560;2023-07-28T00:08:31;12.20;;;9.73;;
26946;SDS011;14501;52.282;10.560;2023-07-28T00:10:56;16.30;;;10.27;;
26946;SDS011;14501;52.282;10.560;2023-07-28T00:13:22;12.65;;;9.77;;
26946;SDS011;14501;52.282;10.560;2023-07-28T00:15:48;12.45;;;9.20;;
26946;SDS011;14501;52.282;10.560;2023-07-28T00:18:13;13.10;;;9.32;;
26946;SDS011;14501;52.282;10.560;2023-07-28T00:20:39;11.80;;;9.00;;
26946;SDS011;14501;52.282;10.560;2023-07-28T00:23:04;11.02;;;9.82;;
26946;SDS011;14501;52.282;10.560;2023-07-28T00:25:30;9.95;;;8.38;;
26946;SDS011;14501;52.282;10.560;2023-07-28T00:27:55;12.88;;;8.88;;
26946;SDS011;14501;52.282;10.560;2023-07-28T00:30:21;11.90;;;8.63;;
26946;SDS011;14501;52.282;10.560;2023-07-28T00:32:48;14.75;;;8.30;;
26946;SDS011;14501;52.282;10.560;2023-07-28T00:35:14;9.68;;;8.40;;
26946;SDS011;14501;52.282;10.560;2023-07-28T00:37:39;10.35;;;7.78;;
26946;SDS011;14501;52.282;10.560;2023-07-28T00:40:05;15.88;;;8.55;;
26946;SDS011;14501;52.282;10.560;2023-07-28T00:42:31;9.48;;;8.52;;
26946;SDS011;14501;52.282;10.560;2023-07-28T00:44:56;8.45;;;7.63;;
26946;SDS011;14501;52.282;10.560;2023-07-28T00:47:22;10.65;;;8.25;;
26946;SDS011;14501;52.282;10.560;2023-07-28T00:49:48;9.32;;;8.05;;
26946;SDS011;14501;52.282;10.560;2023-07-28T00:52:13;11.02;;;8.27;;
26946;SDS011;14501;52.282;10.560;2023-07-28T00:54:39;8.80;;;7.75;;
26946;SDS011;14501;52.282;10.560;2023-07-28T00:57:05;9.43;;;7.10;;
26946;SDS011;14501;52.282;10.560;2023-07-28T00:59:30;8.93;;;7.60;;
26946;SDS011;14501;52.282;10.560;2023-07-28T01:01:56;9.77;;;7.85;;
26946;SDS011;14501;52.282;10.560;2023-07-28T01:04:22;9.45;;;7.80;;
26946;SDS011;14501;52.282;10.560;2023-07-28T01:06:52;8.05;;;7.25;;
26946;SDS011;14501;52.282;10.560;2023-07-28T01:09:29;9.38;;;7.13;;
26946;SDS011;14501;52.282;10.560;2023-07-28T01:12:08;7.35;;;6.70;;
26946;SDS011;14501;52.282;10.560;2023-07-28T01:14:37;10.05;;;7.72;;
26946;SDS011;14501;52.282;10.560;2023-07-28T01:17:03;15.95;;;7.93;;
26946;SDS011;14501;52.282;10.560;2023-07-28T01:19:29;8.00;;;7.20;;
26946;SDS011;14501;52.282;10.560;2023-07-28T01:22:07;10.00;;;7.07;;
26946;SDS011;14501;52.282;10.560;2023-07-28T01:27:57;10.02;;;7.60;;
26946;SDS011;14501;52.282;10.560;2023-07-28T01:30:25;10.63;;;7.35;;
26946;SDS011;14501;52.282;10.560;2023-07-28T01:32:55;8.75;;;7.90;;
26946;SDS011;14501;52.282;10.560;2023-07-28T01:35:22;8.48;;;7.65;;
26946;SDS011;14501;52.282;10.560;2023-07-28T01:37:48;7.40;;;6.75;;
26946;SDS011;14501;52.282;10.560;2023-07-28T01:40:19;11.95;;;7.50;;
26946;SDS011;14501;52.282;10.560;2023-07-28T01:42:45;9.93;;;6.70;;
26946;SDS011;14501;52.282;10.560;2023-07-28T01:45:11;9.82;;;6.93;;
26946;SDS011;14501;52.282;10.560;2023-07-28T01:47:37;7.97;;;7.28;;
26946;SDS011;14501;52.282;10.560;2023-07-28T01:50:02;12.02;;;7.57;;
26946;SDS011;14501;52.282;10.560;2023-07-28T01:52:28;9.73;;;7.13;;
26946;SDS011;14501;52.282;10.560;2023-07-28T01:54:54;9.55;;;7.05;;
26946;SDS011;14501;52.282;10.560;2023-07-28T01:57:19;7.97;;;6.63;;
26946;SDS011;14501;52.282;10.560;2023-07-28T01:59:45;8.50;;;6.15;;
26946;SDS011;14501;52.282;10.560;2023-07-28T02:02:10;11.15;;;7.13;;
26946;SDS011;14501;52.282;10.560;2023-07-28T02:04:36;7.85;;;7.05;;
26946;SDS011;14501;52.282;10.560;2023-07-28T02:07:01;7.50;;;6.47;;
26946;SDS011;14501;52.282;10.560;2023-07-28T02:09:27;7.43;;;6.72;;
26946;SDS011;14501;52.282;10.560;2023-07-28T02:11:52;8.82;;;6.65;;
26946;SDS011;14501;52.282;10.560;2023-07-28T02:14:18;6.85;;;6.05;;
26946;SDS011;14501;52.282;10.560;2023-07-28T02:16:44;7.40;;;6.65;;
26946;SDS011;14501;52.282;10.560;2023-07-28T02:19:09;6.43;;;5.82;;
26946;SDS011;14501;52.282;10.560;2023-07-28T02:21:35;6.10;;;5.60;;
26946;SDS011;14501;52.282;10.560;2023-07-28T02:24:00;8.13;;;6.07;;
26946;SDS011;14501;52.282;10.560;2023-07-28T02:26:26;7.60;;;6.10;;
26946;SDS011;14501;52.282;10.560;2023-07-28T02:28:52;8.98;;;6.00;;
26946;SDS011;14501;52.282;10.560;2023-07-28T02:31:17;5.95;;;5.45;;
26946;SDS011;14501;52.282;10.560;2023-07-28T02:33:43;7.78;;;5.00;;
26946;SDS011;14501;52.282;10.560;2023-07-28T02:36:08;7.68;;;5.15;;
26946;SDS011;14501;52.282;10.560;2023-07-28T02:38:34;5.78;;;5.20;;
26946;SDS011;14501;52.282;10.560;2023-07-28T02:41:00;5.88;;;4.95;;
26946;SDS011;14501;52.282;10.560;2023-07-28T02:43:26;5.35;;;4.85;;
26946;SDS011;14501;52.282;10.560;2023-07-28T02:45:55;6.68;;;4.93;;
26946;SDS011;14501;52.282;10.560;2023-07-28T02:48:21;8.73;;;4.80;;
26946;SDS011;14501;52.282;10.560;2023-07-28T02:50:48;4.57;;;4.18;;
26946;SDS011;14501;52.282;10.560;2023-07-28T02:53:14;4.30;;;3.90;;
26946;SDS011;14501;52.282;10.560;2023-07-28T02:55:41;4.15;;;3.72;;
26946;SDS011;14501;52.282;10.560;2023-07-28T02:58:07;6.15;;;3.70;;
26946;SDS011;14501;52.282;10.560;2023-07-28T03:00:33;4.15;;;3.75;;
26946;SDS011;14501;52.282;10.560;2023-07-28T03:02:59;5.57;;;3.47;;
26946;SDS011;14501;52.282;10.560;2023-07-28T03:05:24;3.10;;;2.80;;
26946;SDS011;14501;52.282;10.560;2023-07-28T03:07:50;5.53;;;3.70;;
26946;SDS011;14501;52.282;10.560;2023-07-28T03:10:15;5.13;;;2.95;;
26946;SDS011;14501;52.282;10.560;2023-07-28T03:12:42;3.35;;;3.05;;
26946;SDS011;14501;52.282;10.560;2023-07-28T03:15:07;3.70;;;2.90;;
26946;SDS011;14501;52.282;10.560;2023-07-28T03:17:33;4.03;;;2.58;;
26946;SDS011;14501;52.282;10.560;2023-07-28T03:19:59;7.03;;;2.53;;
26946;SDS011;14501;52.282;10.560;2023-07-28T03:22:24;4.57;;;2.92;;
26946;SDS011;14501;52.282;10.560;2023-07-28T03:24:50;3.78;;;2.72;;
26946;SDS011;14501;52.282;10.560;2023-07-28T03:27:15;2.70;;;2.45;;
26946;SDS011;14501;52.282;10.560;2023-07-28T03:29:41;3.72;;;2.72;;
26946;SDS011;14501;52.282;10.560;2023-07-28T03:32:07;2.60;;;2.40;;
26946;SDS011;14501;52.282;10.560;2023-07-28T03:34:33;3.63;;;2.55;;
26946;SDS011;14501;52.282;10.560;2023-07-28T03:36:58;4.95;;;2.40;;
26946;SDS011;14501;52.282;10.560;2023-07-28T03:39:24;3.08;;;2.17;;
26946;SDS011;14501;52.282;10.560;2023-07-28T03:41:50;3.22;;;2.60;;
26946;SDS011;14501;52.282;10.560;2023-07-28T03:44:15;3.83;;;2.40;;
26946;SDS011;14501;52.282;10.560;2023-07-28T03:46:41;3.55;;;2.50;;
26946;SDS011;14501;52.282;10.560;2023-07-28T03:49:07;2.20;;;2.00;;
26946;SDS011;14501;52.282;10.560;2023-07-28T03:51:32;2.70;;;2.30;;
26946;SDS011;14501;52.282;10.560;2023-07-28T03:53:58;6.20;;;2.10;;
26946;SDS011;14501;52.282;10.560;2023-07-28T03:56:23;1.80;;;1.70;;
26946;SDS011;14501;52.282;10.560;2023-07-28T03:58:49;2.75;;;2.17;;
26946;SDS011;14501;52.282;10.560;2023-07-28T04:01:14;1.80;;;1.70;;
26946;SDS011;14501;52.282;10.560;2023-07-28T04:03:40;2.03;;;1.85;;
26946;SDS011;14501;52.282;10.560;2023-07-28T04:06:09;6.97;;;2.08;;
26946;SDS011;14501;52.282;10.560;2023-07-28T04:08:36;2.90;;;1.70;;
26946;SDS011;14501;52.282;10.560;2023-07-28T04:11:01;2.47;;;1.63;;
26946;SDS011;14501;52.282;10.560;2023-07-28T04:13:27;1.50;;;1.40;;
26946;SDS011;14501;52.282;10.560;2023-07-28T04:15:52;1.83;;;1.73;;
26946;SDS011;14501;52.282;10.560;2023-07-28T04:18:18;3.42;;;1.63;;
26946;SDS011;14501;52.282;10.560;2023-07-28T04:20:44;1.83;;;1.63;;
26946;SDS011;14501;52.282;10.560;2023-07-28T04:23:09;2.45;;;1.83;;
26946;SDS011;14501;52.282;10.560;2023-07-28T04:25:35;2.88;;;1.73;;
26946;SDS011;14501;52.282;10.560;2023-07-28T04:28:00;2.17;;;1.67;;
26946;SDS011;14501;52.282;10.560;2023-07-28T04:30:26;3.17;;;1.90;;
26946;SDS011;14501;52.282;10.560;2023-07-28T04:32:52;5.15;;;1.90;;
26946;SDS011;14501;52.282;10.560;2023-07-28T04:35:17;6.15;;;2.75;;
26946;SDS011;14501;52.282;10.560;2023-07-28T04:37:43;3.53;;;2.00;;
26946;SDS011;14501;52.282;10.560;2023-07-28T04:40:09;3.75;;;2.60;;
26946;SDS011;14501;52.282;10.560;2023-07-28T04:42:35;3.08;;;2.13;;
26946;SDS011;14501;52.282;10.560;2023-07-28T04:45:01;4.03;;;2.00;;
26946;SDS011;14501;52.282;10.560;2023-07-28T04:47:27;4.90;;;2.30;;
26946;SDS011;14501;52.282;10.560;2023-07-28T04:49:52;3.60;;;2.30;;
26946;SDS011;14501;52.282;10.560;2023-07-28T04:52:18;6.90;;;2.72;;
26946;SDS011;14501;52.282;10.560;2023-07-28T04:54:44;4.18;;;2.67;;
26946;SDS011;14501;52.282;10.560;2023-07-28T04:57:09;3.35;;;2.45;;
26946;SDS011;14501;52.282;10.560;2023-07-28T04:59:35;3.97;;;2.63;;
26946;SDS011;14501;52.282;10.560;2023-07-28T05:02:00;2.63;;;2.42;;
26946;SDS011;14501;52.282;10.560;2023-07-28T05:04:26;4.68;;;2.60;;
26946;SDS011;14501;52.282;10.560;2023-07-28T05:06:52;2.78;;;2.30;;
26946;SDS011;14501;52.282;10.560;2023-07-28T05:09:17;3.38;;;3.10;;
26946;SDS011;14501;52.282;10.560;2023-07-28T05:11:43;4.60;;;2.85;;
26946;SDS011;14501;52.282;10.560;2023-07-28T05:14:08;3.20;;;2.85;;
26946;SDS011;14501;52.282;10.560;2023-07-28T05:16:34;4.05;;;3.10;;
26946;SDS011;14501;52.282;10.560;2023-07-28T05:19:00;3.83;;;3.53;;
26946;SDS011;14501;52.282;10.560;2023-07-28T05:21:25;3.40;;;3.17;;
26946;SDS011;14501;52.282;10.560;2023-07-28T05:23:51;5.53;;;2.90;;
26946;SDS011;14501;52.282;10.560;2023-07-28T05:26:16;2.88;;;2.67;;
26946;SDS011;14501;52.282;10.560;2023-07-28T05:28:42;2.97;;;2.63;;
26946;SDS011;14501;52.282;10.560;2023-07-28T05:31:08;5.50;;;3.15;;
26946;SDS011;14501;52.282;10.560;2023-07-28T05:33:33;6.18;;;2.83;;
26946;SDS011;14501;52.282;10.560;2023-07-28T05:36:00;3.10;;;2.80;;
26946;SDS011;14501;52.282;10.560;2023-07-28T05:38:27;5.15;;;2.92;;
26946;SDS011;14501;52.282;10.560;2023-07-28T05:40:56;4.30;;;3.10;;
26946;SDS011;14501;52.282;10.560;2023-07-28T05:43:26;3.40;;;3.05;;
26946;SDS011;14501;52.282;10.560;2023-07-28T05:45:52;5.43;;;2.88;;
26946;SDS011;14501;52.282;10.560;2023-07-28T05:48:18;3.60;;;2.35;;
26946;SDS011;14501;52.282;10.560;2023-07-28T05:50:43;2.53;;;2.33;;
26946;SDS011;14501;52.282;10.560;2023-07-28T05:53:09;2.85;;;2.40;;
26946;SDS011;14501;52.282;10.560;2023-07-28T05:55:34;2.58;;;2.38;;
26946;SDS011;14501;52.282;10.560;2023-07-28T05:58:00;5.88;;;2.10;;
26946;SDS011;14501;52.282;10.560;2023-07-28T06:00:25;3.45;;;1.88;;
26946;SDS011;14501;52.282;10.560;2023-07-28T06:02:51;2.30;;;2.20;;
26946;SDS011;14501;52.282;10.560;2023-07-28T06:05:18;2.85;;;2.10;;
26946;SDS011;14501;52.282;10.560;2023-07-28T06:07:44;3.28;;;2.10;;
26946;SDS011;14501;52.282;10.560;2023-07-28T06:10:09;2.53;;;2.00;;
26946;SDS011;14501;52.282;10.560;2023-07-28T06:12:35;3.72;;;2.00;;
26946;SDS011;14501;52.282;10.560;2023-07-28T06:15:01;3.63;;;2.20;;
26946;SDS011;14501;52.282;10.560;2023-07-28T06:17:27;2.95;;;2.05;;
26946;SDS011;14501;52.282;10.560;2023-07-28T06:19:53;2.42;;;2.08;;
26946;SDS011;14501;52.282;10.560;2023-07-28T06:22:19;2.42;;;2.22;;
26946;SDS011;14501;52.282;10.560;2023-07-28T06:24:45;3.28;;;2.20;;
26946;SDS011;14501;52.282;10.560;2023-07-28T06:27:11;3.22;;;2.35;;
26946;SDS011;14501;52.282;10.560;2023-07-28T06:29:36;2.55;;;2.28;;
26946;SDS011;14501;52.282;10.560;2023-07-28T06:32:02;2.90;;;2.70;;
26946;SDS011;14501;52.282;10.560;2023-07-28T06:34:27;5.72;;;2.50;;
26946;SDS011;14501;52.282;10.560;2023-07-28T06:36:53;5.13;;;2.50;;
26946;SDS011;14501;52.282;10.560;2023-07-28T06:39:19;4.60;;;2.80;;
26946;SDS011;14501;52.282;10.560;2023-07-28T06:41:44;7.25;;;3.63;;
26946;SDS011;14501;52.282;10.560;2023-07-28T06:44:10;3.13;;;2.80;;
26946;SDS011;14501;52.282;10.560;2023-07-28T06:46:36;3.38;;;2.53;;
26946;SDS011;14501;52.282;10.560;2023-07-28T06:49:01;2.97;;;2.78;;
26946;SDS011;14501;52.282;10.560;2023-07-28T06:51:27;3.97;;;3.20;;
26946;SDS011;14501;52.282;10.560;2023-07-28T06:53:52;4.13;;;2.60;;
26946;SDS011;14501;52.282;10.560;2023-07-28T06:56:18;3.30;;;3.10;;
26946;SDS011;14501;52.282;10.560;2023-07-28T06:58:44;3.80;;;2.90;;
26946;SDS011;14501;52.282;10.560;2023-07-28T07:01:09;2.88;;;2.67;;
26946;SDS011;14501;52.282;10.560;2023-07-28T07:03:36;2.80;;;2.55;;
26946;SDS011;14501;52.282;10.560;2023-07-28T07:06:02;3.45;;;3.10;;
26946;SDS011;14501;52.282;10.560;2023-07-28T07:08:27;3.45;;;3.15;;
26946;SDS011;14501;52.282;10.560;2023-07-28T07:10:53;3.38;;;2.75;;
26946;SDS011;14501;52.282;10.560;2023-07-28T07:13:19;2.90;;;2.58;;
26946;SDS011;14501;52.282;10.560;2023-07-28T07:15:45;6.53;;;3.10;;
26946;SDS011;14501;52.282;10.560;2023-07-28T07:18:11;3.33;;;2.65;;
26946;SDS011;14501;52.282;10.560;2023-07-28T07:20:37;6.43;;;2.50;;
26946;SDS011;14501;52.282;10.560;2023-07-28T07:23:03;5.22;;;3.22;;
26946;SDS011;14501;52.282;10.560;2023-07-28T07:25:29;3.10;;;2.80;;
26946;SDS011;14501;52.282;10.560;2023-07-28T07:27:55;4.88;;;2.85;;
26946;SDS011;14501;52.282;10.560;2023-07-28T07:30:21;3.05;;;2.83;;
26946;SDS011;14501;52.282;10.560;2023-07-28T07:32:47;3.65;;;2.42;;
26946;SDS011;14501;52.282;10.560;2023-07-28T07:35:13;2.60;;;2.40;;
26946;SDS011;14501;52.282;10.560;2023-07-28T07:37:38;3.08;;;2.75;;
26946;SDS011;14501;52.282;10.560;2023-07-28T07:40:05;2.63;;;2.42;;
26946;SDS011;14501;52.282;10.560;2023-07-28T07:42:42;2.80;;;2.60;;
26946;SDS011;14501;52.282;10.560;2023-07-28T07:45:10;3.15;;;2.88;;
26946;SDS011;14501;52.282;10.560;2023-07-28T07:47:36;3.80;;;2.80;;
26946;SDS011;14501;52.282;10.560;2023-07-28T07:50:03;3.38;;;3.15;;
26946;SDS011;14501;52.282;10.560;2023-07-28T07:52:30;4.32;;;3.30;;
26946;SDS011;14501;52.282;10.560;2023-07-28T07:54:55;4.28;;;3.88;;
26946;SDS011;14501;52.282;10.560;2023-07-28T07:57:21;6.20;;;4.70;;
26946;SDS011;14501;52.282;10.560;2023-07-28T07:59:49;5.75;;;4.28;;
26946;SDS011;14501;52.282;10.560;2023-07-28T08:02:15;4.43;;;4.03;;
26946;SDS011;14501;52.282;10.560;2023-07-28T08:04:40;5.00;;;4.50;;
26946;SDS011;14501;52.282;10.560;2023-07-28T08:07:06;7.15;;;5.10;;
26946;SDS011;14501;52.282;10.560;2023-07-28T08:09:31;4.75;;;4.35;;
26946;SDS011;14501;52.282;10.560;2023-07-28T08:11:59;6.03;;;4.50;;
26946;SDS011;14501;52.282;10.560;2023-07-28T08:14:25;7.68;;;4.43;;
26946;SDS011;14501;52.282;10.560;2023-07-28T08:16:50;6.70;;;4.65;;
26946;SDS011;14501;52.282;10.560;2023-07-28T08:19:16;6.78;;;4.32;;
26946;SDS011;14501;52.282;10.560;2023-07-28T08:21:42;5.22;;;4.25;;
26946;SDS011;14501;52.282;10.560;2023-07-28T08:24:08;7.30;;;4.70;;
26946;SDS011;14501;52.282;10.560;2023-07-28T08:26:33;4.97;;;4.57;;
26946;SDS011;14501;52.282;10.560;2023-07-28T08:28:59;5.70;;;4.07;;
26946;SDS011;14501;52.282;10.560;2023-07-28T08:31:25;5.90;;;4.53;;
26946;SDS011;14501;52.282;10.560;2023-07-28T08:33:50;4.90;;;4.50;;
26946;SDS011;14501;52.282;10.560;2023-07-28T08:36:16;5.80;;;4.85;;
26946;SDS011;14501;52.282;10.560;2023-07-28T08:38:42;4.53;;;4.22;;
26946;SDS011;14501;52.282;10.560;2023-07-28T08:41:09;6.28;;;4.60;;
26946;SDS011;14501;52.282;10.560;2023-07-28T08:43:35;4.38;;;4.07;;
26946;SDS011;14501;52.282;10.560;2023-07-28T08:46:00;4.35;;;3.70;;
26946;SDS011;14501;52.282;10.560;2023-07-28T08:48:26;4.10;;;3.80;;
26946;SDS011;14501;52.282;10.560;2023-07-28T08:50:52;3.90;;;3.60;;
26946;SDS011;14501;52.282;10.560;2023-07-28T08:53:18;4.15;;;3.50;;
26946;SDS011;14501;52.282;10.560;2023-07-28T08:55:44;4.32;;;3.70;;
26946;SDS011;14501;52.282;10.560;2023-07-28T08:58:29;4.40;;;3.47;;
26946;SDS011;14501;52.282;10.560;2023-07-28T09:00:55;4.13;;;3.55;;
26946;SDS011;14501;52.282;10.560;2023-07-28T09:03:21;3.83;;;3.53;;
26946;SDS011;14501;52.282;10.560;2023-07-28T09:05:47;4.18;;;3.40;;
26946;SDS011;14501;52.282;10.560;2023-07-28T09:08:16;5.00;;;3.50;;
26946;SDS011;14501;52.282;10.560;2023-07-28T09:10:46;6.57;;;3.30;;
26946;SDS011;14501;52.282;10.560;2023-07-28T09:13:17;3.80;;;3.50;;
26946;SDS011;14501;52.282;10.560;2023-07-28T09:15:44;4.28;;;3.78;;
26946;SDS011;14501;52.282;10.560;2023-07-28T09:18:10;5.38;;;3.97;;
26946;SDS011;14501;52.282;10.560;2023-07-28T09:20:42;6.10;;;3.80;;
26946;SDS011;14501;52.282;10.560;2023-07-28T09:23:08;4.25;;;3.85;;
26946;SDS011;14501;52.282;10.560;2023-07-28T09:25:35;4.10;;;3.70;;
26946;SDS011;14501;52.282;10.560;2023-07-28T09:28:02;4.78;;;4.38;;
26946;SDS011;14501;52.282;10.560;2023-07-28T09:30:42;5.00;;;4.60;;
26946;SDS011;14501;52.282;10.560;2023-07-28T09:33:10;5.32;;;4.85;;
26946;SDS011;14501;52.282;10.560;2023-07-28T09:35:36;5.32;;;4.80;;
26946;SDS011;14501;52.282;10.560;2023-07-28T09:38:15;4.68;;;4.28;;
26946;SDS011;14501;52.282;10.560;2023-07-28T09:40:41;4.50;;;4.10;;
26946;SDS011;14501;52.282;10.560;2023-07-28T09:43:08;8.90;;;5.00;;
26946;SDS011;14501;52.282;10.560;2023-07-28T09:45:35;4.70;;;4.22;;
26946;SDS011;14501;52.282;10.560;2023-07-28T09:48:01;5.07;;;4.68;;
26946;SDS011;14501;52.282;10.560;2023-07-28T09:50:30;3.90;;;3.60;;
26946;SDS011;14501;52.282;10.560;2023-07-28T09:52:58;5.80;;;3.80;;
26946;SDS011;14501;52.282;10.560;2023-07-28T09:55:27;6.63;;;4.03;;
26946;SDS011;14501;52.282;10.560;2023-07-28T09:57:54;3.55;;;3.30;;
26946;SDS011;14501;52.282;10.560;2023-07-28T10:00:21;4.55;;;3.10;;
26946;SDS011;14501;52.282;10.560;2023-07-28T10:02:47;2.97;;;2.72;;
26946;SDS011;14501;52.282;10.560;2023-07-28T10:05:14;4.80;;;2.33;;
26946;SDS011;14501;52.282;10.560;2023-07-28T10:07:40;4.15;;;2.28;;
26946;SDS011;14501;52.282;10.560;2023-07-28T10:10:13;1.60;;;1.50;;
26946;SDS011;14501;52.282;10.560;2023-07-28T10:12:45;1.58;;;1.48;;
26946;SDS011;14501;52.282;10.560;2023-07-28T10:15:13;1.80;;;1.70;;
26946;SDS011;14501;52.282;10.560;2023-07-28T10:17:42;5.57;;;1.67;;
26946;SDS011;14501;52.282;10.560;2023-07-28T10:23:04;2.58;;;1.55;;
26946;SDS011;14501;52.282;10.560;2023-07-28T10:25:39;1.83;;;1.73;;
26946;SDS011;14501;52.282;10.560;2023-07-28T10:28:07;4.72;;;1.42;;
26946;SDS011;14501;52.282;10.560;2023-07-28T10:30:53;1.92;;;1.83;;
26946;SDS011;14501;52.282;10.560;2023-07-28T10:33:30;1.30;;;1.30;;
26946;SDS011;14501;52.282;10.560;2023-07-28T10:35:59;1.77;;;1.33;;
26946;SDS011;14501;52.282;10.560;2023-07-28T10:38:45;1.90;;;1.70;;
26946;SDS011;14501;52.282;10.560;2023-07-28T10:41:11;3.50;;;1.35;;
26946;SDS011;14501;52.282;10.560;2023-07-28T10:43:43;1.15;;;1.15;;
26946;SDS011;14501;52.282;10.560;2023-07-28T10:46:10;2.85;;;1.48;;
26946;SDS011;14501;52.282;10.560;2023-07-28T10:48:41;5.03;;;1.92;;
26946;SDS011;14501;52.282;10.560;2023-07-28T10:51:22;2.42;;;1.40;;
26946;SDS011;14501;52.282;10.560;2023-07-28T10:53:57;1.63;;;1.38;;
26946;SDS011;14501;52.282;10.560;2023-07-28T10:56:24;2.17;;;1.50;;
26946;SDS011;14501;52.282;10.560;2023-07-28T10:58:57;1.63;;;1.50;;
26946;SDS011;14501;52.282;10.560;2023-07-28T11:01:36;1.50;;;1.40;;
26946;SDS011;14501;52.282;10.560;2023-07-28T11:06:39;2.00;;;1.73;;
26946;SDS011;14501;52.282;10.560;2023-07-28T11:09:07;1.50;;;1.40;;
26946;SDS011;14501;52.282;10.560;2023-07-28T11:11:34;3.15;;;1.30;;
26946;SDS011;14501;52.282;10.560;2023-07-28T11:14:01;8.15;;;1.88;;
26946;SDS011;14501;52.282;10.560;2023-07-28T11:16:28;1.48;;;1.38;;
26946;SDS011;14501;52.282;10.560;2023-07-28T11:19:00;1.67;;;1.58;;
26946;SDS011;14501;52.282;10.560;2023-07-28T11:21:27;2.58;;;1.70;;
26946;SDS011;14501;52.282;10.560;2023-07-28T11:23:53;3.20;;;1.83;;
26946;SDS011;14501;52.282;10.560;2023-07-28T11:26:19;3.83;;;1.75;;
26946;SDS011;14501;52.282;10.560;2023-07-28T11:28:47;1.73;;;1.63;;
26946;SDS011;14501;52.282;10.560;2023-07-28T11:31:12;2.30;;;2.10;;
26946;SDS011;14501;52.282;10.560;2023-07-28T11:33:38;4.28;;;2.75;;
26946;SDS011;14501;52.282;10.560;2023-07-28T11:36:04;2.58;;;2.33;;
26946;SDS011;14501;52.282;10.560;2023-07-28T11:38:31;2.45;;;1.80;;
26946;SDS011;14501;52.282;10.560;2023-07-28T11:40:58;1.95;;;1.77;;
26946;SDS011;14501;52.282;10.560;2023-07-28T11:43:24;1.75;;;1.65;;
26946;SDS011;14501;52.282;10.560;2023-07-28T11:45:50;1.95;;;1.85;;
26946;SDS011;14501;52.282;10.560;2023-07-28T11:48:16;2.28;;;1.67;;
26946;SDS011;14501;52.282;10.560;2023-07-28T11:50:42;3.55;;;2.20;;
26946;SDS011;14501;52.282;10.560;2023-07-28T11:53:10;3.53;;;1.80;;
26946;SDS011;14501;52.282;10.560;2023-07-28T11:55:37;3.13;;;1.63;;
26946;SDS011;14501;52.282;10.560;2023-07-28T11:58:06;2.03;;;1.75;;
26946;SDS011;14501;52.282;10.560;2023-07-28T12:00:37;2.88;;;1.52;;
26946;SDS011;14501;52.282;10.560;2023-07-28T12:03:12;2.22;;;1.90;;
26946;SDS011;14501;52.282;10.560;2023-07-28T12:05:38;2.65;;;1.40;;
26946;SDS011;14501;52.282;10.560;2023-07-28T12:08:05;2.35;;;1.50;;
26946;SDS011;14501;52.282;10.560;2023-07-28T12:10:32;1.60;;;1.50;;
26946;SDS011;14501;52.282;10.560;2023-07-28T12:13:07;3.38;;;1.73;;
26946;SDS011;14501;52.282;10.560;2023-07-28T12:15:40;1.90;;;1.50;;
26946;SDS011;14501;52.282;10.560;2023-07-28T12:18:11;1.85;;;1.67;;
26946;SDS011;14501;52.282;10.560;2023-07-28T12:20:39;1.50;;;1.40;;
26946;SDS011;14501;52.282;10.560;2023-07-28T12:23:07;2.20;;;1.58;;
26946;SDS011;14501;52.282;10.560;2023-07-28T12:25:34;2.67;;;2.00;;
26946;SDS011;14501;52.282;10.560;2023-07-28T12:28:01;2.65;;;1.92;;
26946;SDS011;14501;52.282;10.560;2023-07-28T12:30:27;4.65;;;2.08;;
26946;SDS011;14501;52.282;10.560;2023-07-28T12:32:53;4.15;;;2.30;;
26946;SDS011;14501;52.282;10.560;2023-07-28T12:35:18;3.92;;;2.47;;
26946;SDS011;14501;52.282;10.560;2023-07-28T12:37:46;2.80;;;2.30;;
26946;SDS011;14501;52.282;10.560;2023-07-28T12:40:12;4.10;;;2.38;;
26946;SDS011;14501;52.282;10.560;2023-07-28T12:42:38;4.13;;;2.20;;
26946;SDS011;14501;52.282;10.560;2023-07-28T12:45:04;3.53;;;2.20;;
26946;SDS011;14501;52.282;10.560;2023-07-28T12:47:31;3.38;;;2.25;;
26946;SDS011;14501;52.282;10.560;2023-07-28T12:49:57;2.05;;;1.95;;
26946;SDS011;14501;52.282;10.560;2023-07-28T12:52:22;2.08;;;1.90;;
26946;SDS011;14501;52.282;10.560;2023-07-28T12:54:48;2.00;;;1.90;;
26946;SDS011;14501;52.282;10.560;2023-07-28T12:57:13;2.15;;;2.05;;
26946;SDS011;14501;52.282;10.560;2023-07-28T12:59:39;2.30;;;2.10;;
26946;SDS011;14501;52.282;10.560;2023-07-28T13:02:05;3.13;;;2.05;;
26946;SDS011;14501;52.282;10.560;2023-07-28T13:04:31;1.83;;;1.67;;
26946;SDS011;14501;52.282;10.560;2023-07-28T13:06:56;3.22;;;1.90;;
26946;SDS011;14501;52.282;10.560;2023-07-28T13:09:22;2.38;;;2.17;;
26946;SDS011;14501;52.282;10.560;2023-07-28T13:11:48;2.33;;;2.13;;
26946;SDS011;14501;52.282;10.560;2023-07-28T13:14:13;4.68;;;2.08;;
26946;SDS011;14501;52.282;10.560;2023-07-28T13:16:39;2.38;;;2.15;;
26946;SDS011;14501;52.282;10.560;2023-07-28T13:19:05;1.80;;;1.70;;
26946;SDS011;14501;52.282;10.560;2023-07-28T13:21:31;2.75;;;2.05;;
26946;SDS011;14501;52.282;10.560;2023-07-28T13:23:58;3.00;;;1.90;;
26946;SDS011;14501;52.282;10.560;2023-07-28T13:26:24;2.70;;;1.90;;
26946;SDS011;14501;52.282;10.560;2023-07-28T13:28:50;9.13;;;2.25;;
26946;SDS011;14501;52.282;10.560;2023-07-28T13:31:16;5.07;;;2.03;;
26946;SDS011;14501;52.282;10.560;2023-07-28T13:33:42;2.13;;;2.03;;
26946;SDS011;14501;52.282;10.560;2023-07-28T13:36:08;2.22;;;1.75;;
26946;SDS011;14501;52.282;10.560;2023-07-28T13:38:34;2.90;;;2.40;;
26946;SDS011;14501;52.282;10.560;2023-07-28T13:41:00;2.25;;;2.05;;
26946;SDS011;14501;52.282;10.560;2023-07-28T13:43:28;2.60;;;2.00;;
26946;SDS011;14501;52.282;10.560;2023-07-28T13:45:53;3.08;;;2.08;;
26946;SDS011;14501;52.282;10.560;2023-07-28T13:48:19;2.85;;;1.77;;
26946;SDS011;14501;52.282;10.560;2023-07-28T13:50:45;2.13;;;1.80;;
26946;SDS011;14501;52.282;10.560;2023-07-28T13:53:10;2.85;;;1.77;;
26946;SDS011;14501;52.282;10.560;2023-07-28T13:55:36;4.53;;;1.90;;
26946;SDS011;14501;52.282;10.560;2023-07-28T13:58:01;1.60;;;1.50;;
26946;SDS011;14501;52.282;10.560;2023-07-28T14:00:27;1.75;;;1.65;;
26946;SDS011;14501;52.282;10.560;2023-07-28T14:02:52;4.30;;;1.63;;
26946;SDS011;14501;52.282;10.560;2023-07-28T14:05:18;2.17;;;1.65;;
26946;SDS011;14501;52.282;10.560;2023-07-28T14:07:44;3.47;;;1.77;;
26946;SDS011;14501;52.282;10.560;2023-07-28T14:10:11;2.70;;;1.58;;
26946;SDS011;14501;52.282;10.560;2023-07-28T14:12:36;2.40;;;1.75;;
26946;SDS011;14501;52.282;10.560;2023-07-28T14:15:03;4.57;;;1.60;;
26946;SDS011;14501;52.282;10.560;2023-07-28T14:17:29;2.13;;;1.50;;
26946;SDS011;14501;52.282;10.560;2023-07-28T14:19:55;5.38;;;1.80;;
26946;SDS011;14501;52.282;10.560;2023-07-28T14:22:20;2.22;;;1.95;;
26946;SDS011;14501;52.282;10.560;2023-07-28T14:24:46;2.30;;;1.90;;
26946;SDS011;14501;52.282;10.560;2023-07-28T14:27:11;1.70;;;1.60;;
26946;SDS011;14501;52.282;10.560;2023-07-28T14:29:37;2.08;;;1.88;;
26946;SDS011;14501;52.282;10.560;2023-07-28T14:32:03;6.15;;;1.80;;
26946;SDS011;14501;52.282;10.560;2023-07-28T14:34:28;1.85;;;1.75;;
26946;SDS011;14501;52.282;10.560;2023-07-28T14:36:54;4.72;;;2.50;;
26946;SDS011;14501;52.282;10.560;2023-07-28T14:39:20;2.17;;;1.70;;